Skip Navigation Links
NOAA logo - Click to go to the NOAA homepage
NOAA's National Weather Service
Alaska Aviation Weather Unit
  NWS logo - Click to go to the NWS homepage
Left Navbar Graphic     09 AKDT = 17 GMT

   
NOAA is celebrating 200 years of science, service, and stewardship. Visit the NOAA 200th celebration Web site to learn more.
USA.gov is the U.S. Government's official Web portal to all Federal, state and local government Web resources and services.
Facebook
NWS on Facebook

Important Change Regarding the AAWU Web Presence

 

Over the last several months, the AAWU has been working to navigate its webpages to a nationally supported server. Security, as well as other needs, have necessitated the change.  In the process, we have made an effort to enhance the functionality of our website, as well as some of our products. As of June 20, 2017, aawu.arh.noaa.gov will be discontinued. The new AAWU web address is weather.gov/aawu. It is now live and will run in-parallel with the old site until it is discontinued. Please send any feedback or questions regarding the new webpages to nws.ar.aawu.webauthors@noaa.gov.  Thank you for your patience during this time of transition.
AAWU Home :: Display TAF Add Bookmark
TAF CYXJ 271238Z 2713/2801 35012KT P6SM FEW120 SCT220
     BECMG 2718/2720 35008KT
    RMK NXT FCST BY 271900Z=

METAR CYXJ 271100Z 35011KT 15SM FEW160 11/01 A2997 RMK AC1 SLP156 DENSITY ALT 2300FT= METAR CYXJ 271200Z 35013KT 15SM FEW120 SCT220 11/M00 A2999 RMK AC1CI3 SLP164= METAR CYXJ 271300Z 35011G17KT 15SM FEW090 BKN220 11/M01 A3002 RMK AC1CI4 SLP174= METAR CYXJ 271400Z 34009KT 15SM FEW080 SCT220 13/M01 A3007 RMK AC2CI1 SLP187 DENSITY ALT 2300FT= METAR CYXJ 271500Z 33008KT 300V010 15SM FEW090 SCT210 14/M01 A3009 RMK AC2CI1 SLP197 DENSITY ALT 2500FT= METAR CYXJ 271600Z 33008KT 300V020 15SM SCT085 SCT210 16/M02 A3012 RMK AC3CI1 SLP205 DENSITY ALT 2700FT= METAR CYXJ 271700Z 35011G17KT 15SM FEW080 17/M03 A3013 RMK AC1 SLP211 DENSITY ALT 2700FT=
 Alaska TAF Map

NOAA's National Weather Service
Alaska Aviation Weather Unit
6930 Sand Lake Road
Anchorage, AK 99502-1845
Disclaimer
Credits
Glossary
Privacy Policy
About Us
Career Opportunities
Contact AAWU Internet Services Site last modified: April, 17th 2012